createdAt,value
2023-04-14T00:00:07.306Z,0.00
2023-04-14T00:01:07.320Z,0.00
2023-04-14T00:02:07.363Z,0.00
2023-04-14T00:03:07.599Z,0.00
2023-04-14T00:04:07.426Z,0.00
2023-04-14T00:05:07.391Z,0.00
2023-04-14T00:06:07.283Z,0.00
2023-04-14T00:07:07.265Z,0.00
2023-04-14T00:08:07.260Z,0.00
2023-04-14T00:09:07.226Z,0.00
2023-04-14T00:10:07.252Z,0.00
2023-04-14T00:11:07.264Z,0.00
2023-04-14T00:12:07.232Z,0.00
2023-04-14T00:13:07.221Z,0.00
2023-04-14T00:14:07.201Z,0.00
2023-04-14T00:15:07.190Z,0.00
2023-04-14T00:16:07.204Z,0.00
2023-04-14T00:17:07.177Z,0.00
2023-04-14T00:18:07.211Z,0.00
2023-04-14T00:19:07.148Z,0.00
2023-04-14T00:20:07.176Z,0.00
2023-04-14T00:21:07.135Z,0.00
2023-04-14T00:22:07.138Z,0.00
2023-04-14T00:23:07.126Z,0.00
2023-04-14T00:24:07.125Z,0.00
2023-04-14T00:25:07.121Z,0.00
2023-04-14T00:26:07.091Z,0.00
2023-04-14T00:27:07.082Z,0.00
2023-04-14T00:28:07.093Z,0.00
2023-04-14T00:29:07.040Z,0.00
2023-04-14T00:30:07.082Z,0.00
2023-04-14T00:31:07.047Z,0.00
2023-04-14T00:32:07.001Z,0.00
2023-04-14T00:33:07.014Z,0.00
2023-04-14T00:34:07.003Z,0.00
2023-04-14T00:35:07.019Z,0.00
2023-04-14T00:36:06.999Z,0.00
2023-04-14T00:37:06.986Z,0.00
2023-04-14T00:38:06.979Z,0.00
2023-04-14T00:39:06.983Z,0.00
2023-04-14T00:40:06.944Z,0.00
2023-04-14T00:41:06.944Z,0.00
2023-04-14T00:42:06.904Z,0.00
2023-04-14T00:43:06.906Z,0.00
2023-04-14T00:44:06.892Z,0.00
2023-04-14T00:45:06.902Z,0.00
2023-04-14T00:46:06.987Z,0.00
2023-04-14T00:47:06.873Z,0.00
2023-04-14T00:48:06.876Z,0.00
2023-04-14T00:49:06.854Z,0.00
2023-04-14T00:50:06.866Z,0.00
2023-04-14T00:51:06.840Z,0.00
2023-04-14T00:52:06.832Z,0.00
2023-04-14T00:53:06.836Z,0.00
2023-04-14T00:54:06.832Z,0.00
2023-04-14T00:55:06.809Z,0.00
2023-04-14T00:56:06.796Z,0.00
2023-04-14T00:57:06.829Z,0.00
2023-04-14T00:58:06.783Z,0.00
2023-04-14T00:59:06.763Z,0.00
2023-04-14T01:00:06.775Z,0.00
2023-04-14T01:01:06.732Z,0.00
2023-04-14T01:02:06.824Z,0.00
2023-04-14T01:03:07.069Z,0.00
2023-04-14T01:04:06.900Z,0.00
2023-04-14T01:05:06.864Z,0.00
2023-04-14T01:06:06.707Z,0.00
2023-04-14T01:07:06.714Z,0.00
2023-04-14T01:08:06.677Z,0.00
2023-04-14T01:09:06.652Z,0.00
2023-04-14T01:10:06.705Z,0.00
2023-04-14T01:11:06.630Z,0.00
2023-04-14T01:12:06.617Z,0.00
2023-04-14T01:13:06.656Z,0.00
2023-04-14T01:14:06.640Z,0.00
2023-04-14T01:15:06.618Z,0.00
2023-04-14T01:16:06.685Z,0.00
2023-04-14T01:17:06.591Z,0.00
2023-04-14T01:18:06.619Z,0.00
2023-04-14T01:19:06.569Z,0.00
2023-04-14T01:20:06.580Z,0.00
2023-04-14T01:21:06.549Z,0.00
2023-04-14T01:22:06.546Z,0.00
2023-04-14T01:23:06.520Z,0.00
2023-04-14T01:24:06.585Z,0.00
2023-04-14T01:25:06.542Z,0.00
2023-04-14T01:26:06.497Z,0.00
2023-04-14T01:27:06.545Z,0.00
2023-04-14T01:28:06.539Z,0.00
2023-04-14T01:29:06.529Z,0.00
2023-04-14T01:30:06.494Z,0.00
2023-04-14T01:31:06.523Z,0.00
2023-04-14T01:32:06.509Z,0.00
2023-04-14T01:33:06.421Z,0.00
2023-04-14T01:34:06.398Z,0.00
2023-04-14T01:35:06.408Z,0.00
2023-04-14T01:36:06.388Z,0.00
2023-04-14T01:37:06.416Z,0.00
2023-04-14T01:38:06.415Z,0.00
2023-04-14T01:39:06.382Z,0.00
2023-04-14T01:40:06.395Z,0.00
2023-04-14T01:41:06.362Z,0.00
2023-04-14T01:42:06.353Z,0.00
2023-04-14T01:43:06.359Z,0.00
2023-04-14T01:44:06.362Z,0.00
2023-04-14T01:45:06.312Z,0.00
2023-04-14T01:46:06.368Z,0.00
2023-04-14T01:47:06.281Z,0.00
2023-04-14T01:48:06.377Z,0.00
2023-04-14T01:49:06.288Z,0.00
2023-04-14T01:50:06.277Z,0.00
2023-04-14T01:51:06.260Z,0.00
2023-04-14T01:52:06.249Z,0.00
2023-04-14T01:53:06.255Z,0.00
2023-04-14T01:54:06.267Z,0.00
2023-04-14T01:55:06.215Z,0.00
2023-04-14T01:56:06.215Z,0.00
2023-04-14T01:57:06.207Z,0.00
2023-04-14T01:58:06.207Z,0.00
2023-04-14T01:59:06.202Z,0.00
2023-04-14T02:00:06.198Z,0.00
2023-04-14T02:01:06.249Z,0.00
2023-04-14T02:02:06.226Z,0.00
2023-04-14T02:03:06.245Z,0.00
2023-04-14T02:04:06.273Z,0.00
2023-04-14T02:05:06.146Z,0.00
2023-04-14T02:06:06.128Z,0.00
2023-04-14T02:07:06.144Z,0.00
2023-04-14T02:08:06.081Z,0.00
2023-04-14T02:09:06.110Z,0.00
2023-04-14T02:10:06.101Z,0.00
2023-04-14T02:11:06.064Z,0.00
2023-04-14T02:12:06.035Z,0.00
2023-04-14T02:13:06.078Z,0.00
2023-04-14T02:14:06.029Z,0.00
2023-04-14T02:15:06.035Z,0.00
2023-04-14T02:16:06.074Z,0.00
2023-04-14T02:17:06.039Z,0.00
2023-04-14T02:18:05.982Z,0.00
2023-04-14T02:19:06.065Z,0.00
2023-04-14T02:20:05.968Z,0.00
2023-04-14T02:21:05.986Z,0.00
2023-04-14T02:22:05.957Z,0.00
2023-04-14T02:23:05.957Z,0.00
2023-04-14T02:24:05.990Z,0.00
2023-04-14T02:25:05.937Z,0.00
2023-04-14T02:26:05.968Z,0.00
2023-04-14T02:27:05.897Z,0.00
2023-04-14T02:28:05.919Z,0.00
2023-04-14T02:29:05.871Z,0.00
2023-04-14T02:30:05.944Z,0.00
2023-04-14T02:31:05.922Z,0.00
2023-04-14T02:32:05.954Z,0.00
2023-04-14T02:33:05.901Z,0.00
2023-04-14T02:34:05.842Z,0.00
2023-04-14T02:35:05.829Z,0.00
2023-04-14T02:36:05.850Z,0.00
2023-04-14T02:37:05.804Z,0.00
2023-04-14T02:38:05.796Z,0.00
2023-04-14T02:39:37.719Z,0.00
2023-04-14T02:40:05.799Z,0.00
2023-04-14T02:41:05.761Z,0.00
2023-04-14T02:42:05.782Z,4.00
2023-04-14T02:43:05.760Z,4.00
2023-04-14T02:44:06.764Z,4.00
2023-04-14T02:45:05.797Z,4.00
2023-04-14T02:46:05.789Z,0.00
2023-04-14T02:47:05.735Z,0.00
2023-04-14T02:48:05.704Z,0.00
2023-04-14T02:49:05.726Z,0.00
2023-04-14T02:50:05.739Z,0.00
2023-04-14T02:51:05.743Z,0.00
2023-04-14T02:52:05.680Z,0.00
2023-04-14T02:53:05.683Z,0.00
2023-04-14T02:54:05.633Z,0.00
2023-04-14T02:55:06.664Z,0.00
2023-04-14T02:56:05.661Z,0.00
2023-04-14T02:57:05.642Z,0.00
2023-04-14T02:58:05.675Z,0.00
2023-04-14T02:59:05.635Z,0.00
2023-04-14T03:00:05.622Z,0.00
2023-04-14T03:01:05.611Z,0.00
2023-04-14T03:02:05.641Z,0.00
2023-04-14T03:03:05.658Z,0.00
2023-04-14T03:04:05.725Z,0.00
2023-04-14T03:05:05.559Z,0.00
2023-04-14T03:06:05.596Z,0.00
2023-04-14T03:07:05.551Z,0.00
2023-04-14T03:08:05.541Z,0.00
2023-04-14T03:09:05.506Z,0.00
2023-04-14T03:10:05.546Z,0.00
2023-04-14T03:11:05.516Z,0.00
2023-04-14T03:12:05.481Z,0.00
2023-04-14T03:13:05.479Z,0.00
2023-04-14T03:14:05.486Z,0.00
2023-04-14T03:15:05.492Z,0.00
2023-04-14T03:16:05.488Z,0.00
2023-04-14T03:17:05.444Z,0.00
2023-04-14T03:18:05.508Z,0.00
2023-04-14T03:19:05.455Z,0.00
2023-04-14T03:20:05.419Z,0.00
2023-04-14T03:21:05.396Z,0.00
2023-04-14T03:22:05.404Z,0.00
2023-04-14T03:23:05.601Z,0.00
2023-04-14T03:24:05.396Z,0.00
2023-04-14T03:25:05.358Z,0.00
2023-04-14T03:26:05.349Z,0.00
2023-04-14T03:27:05.362Z,0.00
2023-04-14T03:28:05.301Z,0.00
2023-04-14T03:29:05.329Z,0.00
2023-04-14T03:30:05.409Z,0.00
2023-04-14T03:31:05.427Z,0.00
2023-04-14T03:32:05.296Z,0.00
2023-04-14T03:33:05.300Z,0.00
2023-04-14T03:34:06.271Z,0.00
2023-04-14T03:35:05.275Z,0.00
2023-04-14T03:36:05.247Z,0.00
2023-04-14T03:37:05.304Z,0.00
2023-04-14T03:38:06.219Z,0.00
2023-04-14T03:39:05.247Z,0.00
2023-04-14T03:40:05.200Z,0.00
2023-04-14T03:41:05.198Z,0.00
2023-04-14T03:42:05.198Z,0.00
2023-04-14T03:43:05.263Z,0.00
2023-04-14T03:44:05.212Z,0.00
2023-04-14T03:45:05.165Z,0.00
2023-04-14T03:46:05.184Z,0.00
2023-04-14T03:47:05.205Z,0.00
2023-04-14T03:48:05.246Z,0.00
2023-04-14T03:49:05.120Z,0.00
2023-04-14T03:50:05.117Z,0.00
2023-04-14T03:51:05.129Z,0.00
2023-04-14T03:52:05.088Z,0.00
2023-04-14T03:53:05.126Z,0.00
2023-04-14T03:54:05.083Z,0.00
2023-04-14T03:55:05.078Z,0.00
2023-04-14T03:56:05.081Z,0.00
2023-04-14T03:57:05.064Z,0.00
2023-04-14T03:58:05.054Z,0.00
2023-04-14T03:59:05.043Z,0.00
2023-04-14T04:00:05.027Z,0.00
2023-04-14T04:01:05.009Z,0.00
2023-04-14T04:02:05.083Z,0.00
2023-04-14T04:03:05.232Z,0.00
2023-04-14T04:04:05.060Z,0.00
2023-04-14T04:05:05.113Z,4.00
2023-04-14T04:06:05.022Z,4.00
2023-04-14T04:07:05.002Z,4.00
2023-04-14T04:08:05.009Z,4.00
2023-04-14T04:09:04.931Z,4.00
2023-04-14T04:10:04.948Z,4.00
2023-04-14T04:11:04.946Z,8.00
2023-04-14T04:12:04.922Z,4.00
2023-04-14T04:13:04.884Z,8.00
2023-04-14T04:14:04.936Z,4.00
2023-04-14T04:15:04.922Z,8.00
2023-04-14T04:16:04.937Z,8.00
2023-04-14T04:17:04.878Z,12.00
2023-04-14T04:18:04.847Z,12.00
2023-04-14T04:19:04.826Z,12.00
2023-04-14T04:20:06.828Z,12.00
2023-04-14T04:21:04.824Z,20.00
2023-04-14T04:22:04.800Z,20.00
2023-04-14T04:23:04.794Z,24.00
2023-04-14T04:24:04.827Z,24.00
2023-04-14T04:25:04.755Z,28.00
2023-04-14T04:26:04.787Z,32.00
2023-04-14T04:27:06.489Z,40.00
2023-04-14T04:28:04.751Z,40.00
2023-04-14T04:29:04.756Z,44.00
2023-04-14T04:30:04.732Z,52.00
2023-04-14T04:31:04.715Z,56.00
2023-04-14T04:32:04.755Z,64.00
2023-04-14T04:33:04.718Z,72.00
2023-04-14T04:34:04.733Z,76.00
2023-04-14T04:35:04.665Z,88.00
2023-04-14T04:36:04.667Z,92.00
2023-04-14T04:37:04.682Z,96.00
2023-04-14T04:38:04.640Z,100.00
2023-04-14T04:39:04.673Z,108.00
2023-04-14T04:40:04.645Z,112.00
2023-04-14T04:41:04.605Z,116.00
2023-04-14T04:42:04.595Z,124.00
2023-04-14T04:43:04.575Z,132.00
2023-04-14T04:44:04.622Z,140.00
2023-04-14T04:45:04.555Z,148.00
2023-04-14T04:46:04.602Z,152.00
2023-04-14T04:47:04.574Z,160.00
2023-04-14T04:48:04.623Z,168.00
2023-04-14T04:49:04.529Z,176.00
2023-04-14T04:50:04.523Z,188.00
2023-04-14T04:51:04.519Z,200.00
2023-04-14T04:52:04.506Z,208.00
2023-04-14T04:53:04.527Z,220.00
2023-04-14T04:54:04.491Z,232.00
2023-04-14T04:55:04.502Z,240.00
2023-04-14T04:56:04.511Z,256.00
2023-04-14T04:57:04.788Z,264.00
2023-04-14T04:58:04.459Z,280.00
2023-04-14T04:59:04.510Z,296.00
2023-04-14T05:00:04.489Z,308.00
2023-04-14T05:01:04.447Z,320.00
2023-04-14T05:02:04.439Z,336.00
2023-04-14T05:03:04.453Z,344.00
2023-04-14T05:04:04.475Z,352.00
2023-04-14T05:05:04.426Z,364.00
2023-04-14T05:06:04.390Z,380.00
2023-04-14T05:07:04.378Z,384.00
2023-04-14T05:08:04.363Z,392.00
2023-04-14T05:09:04.366Z,400.00
2023-04-14T05:10:04.404Z,412.00
2023-04-14T05:11:04.355Z,428.00
2023-04-14T05:12:04.341Z,440.00
2023-04-14T05:13:04.331Z,452.00
2023-04-14T05:14:04.301Z,464.00
2023-04-14T05:15:04.342Z,484.00
2023-04-14T05:16:04.343Z,516.00
2023-04-14T05:17:05.691Z,568.00
2023-04-14T05:18:07.324Z,624.00
2023-04-14T05:19:08.191Z,692.00
2023-04-14T05:20:06.187Z,736.00
2023-04-14T05:21:07.272Z,736.00
2023-04-14T05:22:07.190Z,728.00
2023-04-14T05:23:07.200Z,708.00
2023-04-14T05:24:07.696Z,716.00
2023-04-14T05:25:05.681Z,732.00
2023-04-14T05:26:16.341Z,736.00
2023-04-14T05:27:14.182Z,740.00
2023-04-14T05:28:05.755Z,744.00
2023-04-14T05:29:04.831Z,756.00
2023-04-14T05:30:04.773Z,776.00
2023-04-14T05:31:05.707Z,808.00
2023-04-14T05:32:06.700Z,844.00
2023-04-14T05:33:08.205Z,868.00
2023-04-14T05:34:07.196Z,880.00
2023-04-14T05:35:04.165Z,896.00
2023-04-14T05:36:06.713Z,880.00
2023-04-14T05:37:04.624Z,868.00
2023-04-14T05:38:05.371Z,848.00
2023-04-14T05:39:08.690Z,824.00
2023-04-14T05:40:04.689Z,824.00
2023-04-14T05:41:04.998Z,816.00
2023-04-14T05:42:04.696Z,816.00
2023-04-14T05:43:05.835Z,800.00
2023-04-14T05:44:04.939Z,784.00
2023-04-14T05:45:05.053Z,788.00
2023-04-14T05:46:05.937Z,808.00
2023-04-14T05:47:06.244Z,820.00
2023-04-14T05:48:07.221Z,844.00
2023-04-14T05:49:04.215Z,844.00
2023-04-14T05:50:03.971Z,832.00
2023-04-14T05:51:05.697Z,840.00
2023-04-14T05:52:04.814Z,840.00
2023-04-14T05:53:09.193Z,852.00
2023-04-14T05:54:11.707Z,860.00
2023-04-14T05:55:05.871Z,888.00
2023-04-14T05:56:05.188Z,936.00
2023-04-14T05:57:08.181Z,964.00
2023-04-14T05:58:06.194Z,976.00
2023-04-14T05:59:06.728Z,964.00
2023-04-14T06:00:07.195Z,964.00
2023-04-14T06:01:07.192Z,968.00
2023-04-14T06:02:10.277Z,976.00
2023-04-14T06:03:05.021Z,988.00
2023-04-14T06:04:07.282Z,984.00
2023-04-14T06:05:05.340Z,988.00
2023-04-14T06:06:08.768Z,992.00
2023-04-14T06:07:08.271Z,1024.00
2023-04-14T06:08:04.843Z,1036.00
2023-04-14T06:09:04.887Z,1052.00
2023-04-14T06:10:05.380Z,1072.00
2023-04-14T06:11:06.262Z,1080.00
2023-04-14T06:12:09.202Z,1060.00
2023-04-14T06:13:05.727Z,1048.00
2023-04-14T06:14:08.295Z,1036.00
2023-04-14T06:15:06.429Z,1036.00
2023-04-14T06:16:07.770Z,1036.00
2023-04-14T06:17:07.696Z,1032.00
2023-04-14T06:18:05.703Z,1036.00
2023-04-14T06:19:05.181Z,1028.00
2023-04-14T06:20:05.736Z,1024.00
2023-04-14T06:21:03.706Z,1048.00
2023-04-14T06:22:05.227Z,1100.00
2023-04-14T06:23:06.206Z,1180.00
2023-04-14T06:24:06.189Z,1236.00
2023-04-14T06:25:07.690Z,1252.00
2023-04-14T06:26:05.767Z,1248.00
2023-04-14T06:27:04.679Z,1220.00
2023-04-14T06:28:06.268Z,1204.00
2023-04-14T06:29:05.277Z,1196.00
2023-04-14T06:30:04.715Z,1212.00
2023-04-14T06:31:07.204Z,1224.00
2023-04-14T06:32:04.723Z,1220.00
2023-04-14T06:33:04.434Z,1232.00
2023-04-14T06:34:05.696Z,1340.00
2023-04-14T06:35:05.283Z,1540.00
2023-04-14T06:36:06.226Z,1864.00
2023-04-14T06:37:05.222Z,2132.00
2023-04-14T06:38:04.185Z,2276.00
2023-04-14T06:39:03.689Z,2312.00
2023-04-14T06:40:03.496Z,2504.00
2023-04-14T06:41:13.194Z,2868.00
2023-04-14T06:42:04.598Z,3256.00
2023-04-14T06:43:04.685Z,3848.00
2023-04-14T06:44:04.649Z,4952.00
2023-04-14T06:45:03.603Z,6344.00
2023-04-14T06:46:05.745Z,7460.00
2023-04-14T06:47:06.702Z,8020.00
2023-04-14T06:48:06.300Z,8472.00
2023-04-14T06:49:06.190Z,8132.00
2023-04-14T06:50:06.271Z,8396.00
2023-04-14T06:51:06.193Z,7928.00
2023-04-14T06:52:08.316Z,7488.00
2023-04-14T06:53:05.704Z,7556.00
2023-04-14T06:54:05.324Z,8068.00
2023-04-14T06:55:04.187Z,8532.00
2023-04-14T06:56:06.179Z,9296.00
2023-04-14T06:57:07.206Z,9832.00
2023-04-14T06:58:05.242Z,10880.00
2023-04-14T06:59:05.414Z,12296.00
2023-04-14T07:00:03.860Z,12736.00
2023-04-14T07:01:04.791Z,12528.00
2023-04-14T07:02:04.767Z,11900.00
2023-04-14T07:03:05.912Z,10888.00
2023-04-14T07:04:06.105Z,9976.00
2023-04-14T07:05:06.797Z,10160.00
2023-04-14T07:06:07.185Z,9804.00
2023-04-14T07:07:07.324Z,10812.00
2023-04-14T07:08:10.016Z,10084.00
2023-04-14T07:09:04.168Z,9876.00
2023-04-14T07:10:04.217Z,9612.00
2023-04-14T07:11:05.190Z,9736.00
2023-04-14T07:12:04.693Z,8428.00
2023-04-14T07:13:04.726Z,7540.00
2023-04-14T07:14:10.692Z,6540.00
2023-04-14T07:15:06.185Z,6544.00
2023-04-14T07:16:07.313Z,6272.00
2023-04-14T07:17:10.714Z,5664.00
2023-04-14T07:18:06.736Z,5188.00
2023-04-14T07:19:03.824Z,5040.00
2023-04-14T07:20:08.268Z,4828.00
2023-04-14T07:21:05.212Z,4468.00
2023-04-14T07:22:03.747Z,4240.00
2023-04-14T07:23:04.713Z,4192.00
2023-04-14T07:24:05.278Z,4060.00
2023-04-14T07:25:06.256Z,3924.00
2023-04-14T07:26:06.777Z,4004.00
2023-04-14T07:27:08.215Z,4216.00
2023-04-14T07:28:04.483Z,4372.00
2023-04-14T07:29:09.421Z,4600.00
2023-04-14T07:30:05.999Z,4944.00
2023-04-14T07:31:04.201Z,5212.00
2023-04-14T07:32:04.681Z,5384.00
2023-04-14T07:33:05.286Z,5556.00
2023-04-14T07:34:03.752Z,5704.00
2023-04-14T07:35:04.686Z,5864.00
2023-04-14T07:36:10.740Z,6276.00
2023-04-14T07:37:06.220Z,6652.00
2023-04-14T07:38:05.180Z,7000.00
2023-04-14T07:39:06.191Z,7400.00
2023-04-14T07:40:20.245Z,8044.00
2023-04-14T07:41:06.184Z,8648.00
2023-04-14T07:42:03.680Z,9000.00
2023-04-14T07:43:03.930Z,9256.00
2023-04-14T07:44:05.714Z,9428.00
2023-04-14T07:45:05.177Z,9748.00
2023-04-14T07:46:03.891Z,9800.00
2023-04-14T07:47:05.673Z,9576.00
2023-04-14T07:48:06.204Z,9396.00
2023-04-14T07:49:06.227Z,9356.00
2023-04-14T07:50:05.820Z,9428.00
2023-04-14T07:51:05.196Z,9532.00
2023-04-14T07:52:05.178Z,9216.00
2023-04-14T07:53:02.774Z,8996.00
2023-04-14T07:54:09.754Z,8696.00
2023-04-14T07:55:03.470Z,8460.00
2023-04-14T07:56:04.000Z,8260.00
2023-04-14T07:57:05.181Z,8240.00
2023-04-14T07:58:04.278Z,8424.00
2023-04-14T07:59:04.782Z,8904.00
2023-04-14T08:00:04.703Z,9760.00
2023-04-14T08:01:04.792Z,9128.00
2023-04-14T08:02:05.929Z,8888.00
2023-04-14T08:03:05.393Z,9320.00
2023-04-14T08:04:07.476Z,9608.00
2023-04-14T08:05:03.710Z,9868.00
2023-04-14T08:06:07.355Z,10272.00
2023-04-14T08:07:06.220Z,10492.00
2023-04-14T08:08:04.341Z,10732.00
2023-04-14T08:09:07.275Z,10884.00
2023-04-14T08:10:10.178Z,10900.00
2023-04-14T08:11:03.686Z,10964.00
2023-04-14T08:12:08.734Z,10940.00
2023-04-14T08:13:07.242Z,10784.00
2023-04-14T08:14:03.688Z,10764.00
2023-04-14T08:15:04.182Z,11016.00
2023-04-14T08:16:05.341Z,11408.00
2023-04-14T08:17:05.679Z,11800.00
2023-04-14T08:18:03.750Z,12256.00
2023-04-14T08:19:04.938Z,12572.00
2023-04-14T08:20:03.739Z,12672.00
2023-04-14T08:21:05.787Z,12624.00
2023-04-14T08:22:07.678Z,12600.00
2023-04-14T08:23:06.182Z,12492.00
2023-04-14T08:24:02.603Z,12600.00
2023-04-14T08:25:05.176Z,13020.00
2023-04-14T08:26:03.183Z,13368.00
2023-04-14T08:27:03.949Z,13532.00
2023-04-14T08:28:17.648Z,13632.00
2023-04-14T08:29:11.174Z,13812.00
2023-04-14T08:30:05.174Z,14084.00
2023-04-14T08:31:03.069Z,14388.00
2023-04-14T08:32:04.324Z,14704.00
2023-04-14T08:33:18.185Z,15048.00
2023-04-14T08:34:04.487Z,15496.00
2023-04-14T08:35:35.328Z,15964.00
2023-04-14T08:36:06.678Z,16276.00
2023-04-14T08:37:02.503Z,16508.00
2023-04-14T08:38:04.196Z,17024.00
2023-04-14T08:39:34.269Z,17408.00
2023-04-14T08:40:03.202Z,18016.00
2023-04-14T08:41:03.701Z,18752.00
2023-04-14T08:42:02.366Z,19680.00
2023-04-14T08:43:03.192Z,20512.00
2023-04-14T08:44:02.255Z,22176.00
2023-04-14T08:45:02.324Z,23424.00
2023-04-14T08:46:02.337Z,23392.00
2023-04-14T08:47:02.268Z,24288.00
2023-04-14T08:48:02.284Z,21056.00
2023-04-14T08:49:02.608Z,19392.00
2023-04-14T08:50:02.235Z,18656.00
2023-04-14T08:51:02.229Z,17760.00
2023-04-14T08:52:02.279Z,17408.00
2023-04-14T08:53:02.172Z,17504.00
2023-04-14T08:54:02.450Z,17888.00
2023-04-14T08:55:02.193Z,18176.00
2023-04-14T08:56:02.198Z,18304.00
2023-04-14T08:57:02.176Z,18400.00
2023-04-14T08:58:02.148Z,18240.00
2023-04-14T08:59:02.134Z,17856.00
2023-04-14T09:00:02.154Z,17568.00
2023-04-14T09:01:02.178Z,17696.00
2023-04-14T09:02:02.188Z,17984.00
2023-04-14T09:03:02.291Z,17248.00
2023-04-14T09:04:02.548Z,16800.00
2023-04-14T09:05:02.266Z,16208.00
2023-04-14T09:06:02.091Z,15996.00
2023-04-14T09:07:02.047Z,15940.00
2023-04-14T09:08:02.065Z,15968.00
2023-04-14T09:09:02.025Z,16052.00
2023-04-14T09:10:02.065Z,16076.00
2023-04-14T09:11:02.059Z,16060.00
2023-04-14T09:12:02.024Z,16068.00
2023-04-14T09:13:01.978Z,15988.00
2023-04-14T09:14:02.131Z,15876.00
2023-04-14T09:15:02.001Z,15808.00
2023-04-14T09:16:02.044Z,15584.00
2023-04-14T09:17:01.985Z,15448.00
2023-04-14T09:18:02.050Z,15548.00
2023-04-14T09:19:07.361Z,15848.00
2023-04-14T09:20:35.463Z,16348.00
2023-04-14T09:21:49.344Z,17088.00
2023-04-14T09:22:02.891Z,17632.00
2023-04-14T09:23:01.872Z,18048.00
2023-04-14T09:24:02.143Z,18464.00
2023-04-14T09:25:01.909Z,19616.00
2023-04-14T09:26:01.872Z,19872.00
2023-04-14T09:27:01.886Z,25920.00
2023-04-14T09:28:01.923Z,26784.00
2023-04-14T09:29:01.993Z,26080.00
2023-04-14T09:30:01.827Z,24960.00
2023-04-14T09:31:01.894Z,24064.00
2023-04-14T09:32:01.856Z,23488.00
2023-04-14T09:33:01.804Z,22688.00
2023-04-14T09:34:02.115Z,22368.00
2023-04-14T09:35:01.794Z,22400.00
2023-04-14T09:36:01.808Z,22176.00
2023-04-14T09:37:01.751Z,21824.00
2023-04-14T09:38:01.783Z,21888.00
2023-04-14T09:39:01.728Z,21856.00
2023-04-14T09:40:01.735Z,22048.00
2023-04-14T09:41:01.772Z,22176.00
2023-04-14T09:42:01.722Z,19424.00
2023-04-14T09:43:01.712Z,18496.00
2023-04-14T09:44:01.719Z,18560.00
2023-04-14T09:45:01.665Z,18976.00
2023-04-14T09:46:01.668Z,19840.00
2023-04-14T09:47:01.689Z,21152.00
2023-04-14T09:48:01.648Z,20896.00
2023-04-14T09:49:01.628Z,20704.00
2023-04-14T09:50:01.621Z,20480.00
2023-04-14T09:51:01.633Z,20320.00
2023-04-14T09:52:01.645Z,20480.00
2023-04-14T09:53:01.611Z,20448.00
2023-04-14T09:54:01.924Z,20416.00
2023-04-14T09:55:01.580Z,20576.00
2023-04-14T09:56:01.585Z,20544.00
2023-04-14T09:57:01.581Z,20384.00
2023-04-14T09:58:01.554Z,20640.00
2023-04-14T09:59:02.162Z,20544.00
2023-04-14T10:00:01.543Z,20768.00
2023-04-14T10:01:01.510Z,20480.00
2023-04-14T10:02:01.679Z,21088.00
2023-04-14T10:03:01.758Z,21152.00
2023-04-14T10:04:01.545Z,21536.00
2023-04-14T10:05:01.471Z,19872.00
2023-04-14T10:06:01.447Z,19040.00
2023-04-14T10:07:01.445Z,19008.00
2023-04-14T10:08:01.498Z,18656.00
2023-04-14T10:09:02.051Z,18976.00
2023-04-14T10:10:01.415Z,19072.00
2023-04-14T10:11:01.425Z,19616.00
2023-04-14T10:12:01.421Z,19200.00
2023-04-14T10:13:01.404Z,18816.00
2023-04-14T10:14:01.403Z,18336.00
2023-04-14T10:15:01.415Z,18048.00
2023-04-14T10:16:01.458Z,17824.00
2023-04-14T10:17:01.386Z,17632.00
2023-04-14T10:18:01.409Z,17568.00
2023-04-14T10:19:01.509Z,17664.00
2023-04-14T10:20:01.337Z,17760.00
2023-04-14T10:21:01.357Z,17760.00
2023-04-14T10:22:01.317Z,17696.00
2023-04-14T10:23:01.275Z,17696.00
2023-04-14T10:24:01.274Z,17536.00
2023-04-14T10:25:02.268Z,16864.00
2023-04-14T10:26:01.258Z,16832.00
2023-04-14T10:27:01.314Z,17888.00
2023-04-14T10:28:01.261Z,18752.00
2023-04-14T10:29:01.539Z,19776.00
2023-04-14T10:30:01.214Z,19936.00
2023-04-14T10:31:01.212Z,19584.00
2023-04-14T10:32:01.340Z,19232.00
2023-04-14T10:33:01.205Z,19648.00
2023-04-14T10:34:01.186Z,19424.00
2023-04-14T10:35:01.190Z,19264.00
2023-04-14T10:36:01.195Z,19296.00
2023-04-14T10:37:01.142Z,19104.00
2023-04-14T10:38:01.144Z,19040.00
2023-04-14T10:39:01.577Z,19104.00
2023-04-14T10:40:01.136Z,19168.00
2023-04-14T10:41:01.118Z,19072.00
2023-04-14T10:42:01.112Z,18848.00
2023-04-14T10:43:01.091Z,18656.00
2023-04-14T10:44:01.073Z,18816.00
2023-04-14T10:45:01.102Z,18688.00
2023-04-14T10:46:01.048Z,18240.00
2023-04-14T10:47:01.098Z,18944.00
2023-04-14T10:48:01.092Z,16348.00
2023-04-14T10:49:01.285Z,19104.00
2023-04-14T10:50:01.019Z,19136.00
2023-04-14T10:51:01.031Z,18624.00
2023-04-14T10:52:01.036Z,17056.00
2023-04-14T10:53:01.034Z,17632.00
2023-04-14T10:54:00.984Z,18592.00
2023-04-14T10:55:00.998Z,18400.00
2023-04-14T10:56:00.984Z,17952.00
2023-04-14T10:57:00.937Z,15812.00
2023-04-14T10:58:00.928Z,15792.00
2023-04-14T10:59:01.219Z,15152.00
2023-04-14T11:00:00.980Z,15128.00
2023-04-14T11:01:00.936Z,14708.00
2023-04-14T11:02:01.078Z,14580.00
2023-04-14T11:03:01.051Z,14264.00
2023-04-14T11:04:00.961Z,14008.00
2023-04-14T11:05:00.852Z,13796.00
2023-04-14T11:06:00.871Z,13652.00
2023-04-14T11:07:00.878Z,13756.00
2023-04-14T11:08:02.642Z,13852.00
2023-04-14T11:09:02.012Z,14024.00
2023-04-14T11:10:00.816Z,14152.00
2023-04-14T11:11:00.844Z,14212.00
2023-04-14T11:12:00.835Z,14160.00
2023-04-14T11:13:00.828Z,14148.00
2023-04-14T11:14:00.804Z,14072.00
2023-04-14T11:15:00.784Z,14116.00
2023-04-14T11:16:00.820Z,13964.00
2023-04-14T11:17:03.692Z,13832.00
2023-04-14T11:18:01.772Z,13780.00
2023-04-14T11:19:00.877Z,13832.00
2023-04-14T11:20:00.775Z,13864.00
2023-04-14T11:21:00.707Z,13860.00
2023-04-14T11:22:00.726Z,13828.00
2023-04-14T11:23:00.716Z,13728.00
2023-04-14T11:24:00.692Z,13632.00
2023-04-14T11:25:00.702Z,13536.00
2023-04-14T11:26:00.658Z,13528.00
2023-04-14T11:27:00.687Z,13488.00
2023-04-14T11:28:00.629Z,13516.00
2023-04-14T11:29:00.807Z,13548.00
2023-04-14T11:30:00.646Z,13596.00
2023-04-14T11:31:00.621Z,13648.00
2023-04-14T11:32:00.740Z,13724.00
2023-04-14T11:33:00.718Z,13836.00
2023-04-14T11:34:00.573Z,14068.00
2023-04-14T11:35:00.600Z,14268.00
2023-04-14T11:36:00.666Z,14424.00
2023-04-14T11:37:00.578Z,14624.00
2023-04-14T11:38:00.573Z,14852.00
2023-04-14T11:39:00.760Z,15156.00
2023-04-14T11:40:00.568Z,15304.00
2023-04-14T11:41:00.543Z,15428.00
2023-04-14T11:42:00.532Z,17120.00
2023-04-14T11:43:00.539Z,17248.00
2023-04-14T11:44:00.521Z,17568.00
2023-04-14T11:45:00.507Z,17632.00
2023-04-14T11:46:00.500Z,17376.00
2023-04-14T11:47:00.492Z,17792.00
2023-04-14T11:48:00.511Z,17408.00
2023-04-14T11:49:00.892Z,17472.00
2023-04-14T11:50:00.414Z,17312.00
2023-04-14T11:51:00.430Z,17248.00
2023-04-14T11:52:00.433Z,17152.00
2023-04-14T11:53:00.421Z,16640.00
2023-04-14T11:54:00.447Z,16672.00
2023-04-14T11:55:00.400Z,16160.00
2023-04-14T11:56:00.413Z,16088.00
2023-04-14T11:57:00.391Z,16352.00
2023-04-14T11:58:00.406Z,15832.00
2023-04-14T11:59:00.672Z,15604.00
2023-04-14T12:00:00.381Z,14752.00
2023-04-14T12:01:00.334Z,15424.00
2023-04-14T12:02:00.329Z,14864.00
2023-04-14T12:03:00.416Z,13896.00
2023-04-14T12:04:00.487Z,13984.00
2023-04-14T12:05:00.544Z,13916.00
2023-04-14T12:06:00.723Z,13944.00
2023-04-14T12:07:00.264Z,13884.00
2023-04-14T12:08:00.240Z,14036.00
2023-04-14T12:09:00.398Z,14252.00
2023-04-14T12:10:00.312Z,14420.00
2023-04-14T12:11:00.265Z,14552.00
2023-04-14T12:12:00.218Z,14608.00
2023-04-14T12:13:00.186Z,14516.00
2023-04-14T12:14:00.216Z,14412.00
2023-04-14T12:15:00.249Z,14256.00
2023-04-14T12:16:00.207Z,14040.00
2023-04-14T12:17:00.240Z,13796.00
2023-04-14T12:18:00.283Z,13512.00
2023-04-14T12:19:00.491Z,13240.00
2023-04-14T12:20:00.140Z,13012.00
2023-04-14T12:21:00.173Z,12780.00
2023-04-14T12:22:00.147Z,12708.00
2023-04-14T12:23:00.162Z,12820.00
2023-04-14T12:24:00.136Z,13040.00